createdAt,value
2017-11-15T00:00:34.330Z,95.79
2017-11-15T00:01:34.319Z,95.89
2017-11-15T00:02:34.314Z,96.08
2017-11-15T00:03:34.045Z,95.89
2017-11-15T00:04:34.292Z,95.79
2017-11-15T00:05:34.281Z,95.79
2017-11-15T00:06:34.275Z,95.79
2017-11-15T00:07:34.262Z,96.55
2017-11-15T00:08:34.251Z,95.79
2017-11-15T00:09:34.238Z,95.98
2017-11-15T00:10:34.229Z,95.79
2017-11-15T00:11:34.227Z,95.89
2017-11-15T00:12:34.208Z,95.89
2017-11-15T00:13:34.201Z,95.89
2017-11-15T00:14:34.196Z,95.98
2017-11-15T00:15:34.180Z,95.98
2017-11-15T00:16:34.165Z,95.6
2017-11-15T00:17:34.160Z,95.89
2017-11-15T00:18:34.145Z,95.89
2017-11-15T00:19:34.137Z,96.08
2017-11-15T00:20:34.128Z,95.7
2017-11-15T00:21:33.858Z,96.08
2017-11-15T00:22:34.107Z,95.98
2017-11-15T00:23:33.837Z,95.89
2017-11-15T00:24:34.086Z,95.89
2017-11-15T00:25:34.075Z,95.98
2017-11-15T00:26:34.066Z,95.89
2017-11-15T00:27:34.052Z,95.89
2017-11-15T00:28:34.047Z,95.98
2017-11-15T00:29:34.032Z,95.98
2017-11-15T00:30:34.025Z,96.17
2017-11-15T00:31:34.010Z,96.08
2017-11-15T00:32:34.005Z,96.08
2017-11-15T00:33:33.991Z,95.89
2017-11-15T00:34:33.977Z,95.89
2017-11-15T00:35:33.969Z,95.98
2017-11-15T00:36:33.962Z,95.89
2017-11-15T00:37:33.963Z,95.79
2017-11-15T00:38:33.984Z,96.17
2017-11-15T00:39:33.671Z,96.08
2017-11-15T00:40:33.917Z,95.89
2017-11-15T00:41:33.908Z,96.08
2017-11-15T00:42:33.640Z,96.17
2017-11-15T00:43:33.898Z,96.17
2017-11-15T00:44:33.876Z,96.17
2017-11-15T00:45:33.869Z,95.51
2017-11-15T00:46:33.876Z,95.51
2017-11-15T00:47:33.852Z,95.79
2017-11-15T00:48:33.837Z,95.7
2017-11-15T00:49:33.830Z,95.89
2017-11-15T00:50:33.832Z,95.6
2017-11-15T00:51:33.816Z,95.7
2017-11-15T00:52:33.800Z,95.6
2017-11-15T00:53:33.783Z,95.89
2017-11-15T00:54:33.849Z,95.51
2017-11-15T00:55:33.768Z,95.6
2017-11-15T00:56:33.755Z,95.79
2017-11-15T00:57:33.745Z,95.84
2017-11-15T00:58:33.742Z,95.84
2017-11-15T00:59:33.725Z,95.56
2017-11-15T01:00:33.714Z,95.6
2017-11-15T01:01:33.704Z,95.79
2017-11-15T01:02:33.696Z,95.89
2017-11-15T01:03:33.424Z,94.98
2017-11-15T01:04:33.673Z,95.22
2017-11-15T01:05:33.662Z,95.79
2017-11-15T01:06:33.394Z,95.7
2017-11-15T01:07:33.642Z,95.89
2017-11-15T01:08:33.635Z,95.7
2017-11-15T01:09:33.362Z,95.79
2017-11-15T01:10:33.612Z,95.79
2017-11-15T01:11:33.597Z,95.94
2017-11-15T01:12:33.593Z,95.79
2017-11-15T01:13:33.583Z,95.56
2017-11-15T01:14:33.571Z,95.89
2017-11-15T01:15:33.302Z,95.79
2017-11-15T01:16:33.559Z,95.79
2017-11-15T01:17:33.554Z,96.12
2017-11-15T01:18:33.551Z,95.75
2017-11-15T01:19:33.527Z,95.75
2017-11-15T01:20:33.506Z,95.75
2017-11-15T01:21:33.503Z,96.08
2017-11-15T01:22:33.495Z,95.6
2017-11-15T01:23:33.479Z,95.75
2017-11-15T01:24:33.474Z,95.79
2017-11-15T01:25:33.460Z,95.08
2017-11-15T01:26:33.447Z,95.12
2017-11-15T01:27:33.435Z,95.27
2017-11-15T01:28:33.169Z,95.84
2017-11-15T01:29:33.426Z,95.75
2017-11-15T01:30:33.409Z,95.94
2017-11-15T01:31:33.417Z,95.94
2017-11-15T01:32:33.388Z,95.89
2017-11-15T01:33:33.377Z,95.7
2017-11-15T01:34:33.371Z,95.94
2017-11-15T01:35:33.357Z,95.79
2017-11-15T01:36:33.362Z,95.75
2017-11-15T01:37:33.339Z,95.75
2017-11-15T01:38:33.324Z,95.75
2017-11-15T01:39:33.313Z,95.84
2017-11-15T01:40:33.313Z,95.84
2017-11-15T01:41:33.298Z,95.94
2017-11-15T01:42:33.296Z,95.17
2017-11-15T01:43:33.288Z,94.98
2017-11-15T01:44:33.269Z,95.65
2017-11-15T01:45:33.254Z,95.08
2017-11-15T01:46:33.248Z,95.17
2017-11-15T01:47:33.235Z,95.36
2017-11-15T01:48:33.226Z,95.75
2017-11-15T01:49:33.215Z,95.36
2017-11-15T01:50:33.215Z,95.36
2017-11-15T01:51:33.196Z,95.27
2017-11-15T01:52:33.183Z,95.75
2017-11-15T01:53:33.175Z,95.17
2017-11-15T01:54:33.161Z,94.79
2017-11-15T01:55:32.898Z,95.08
2017-11-15T01:56:33.146Z,95.56
2017-11-15T01:57:33.140Z,95.65
2017-11-15T01:58:33.125Z,95.27
2017-11-15T01:59:33.120Z,95.08
2017-11-15T02:00:33.101Z,95.56
2017-11-15T02:01:33.095Z,95.27
2017-11-15T02:02:33.086Z,95.27
2017-11-15T02:03:33.080Z,95.08
2017-11-15T02:04:33.066Z,95.27
2017-11-15T02:05:33.056Z,95.56
2017-11-15T02:06:33.045Z,95.27
2017-11-15T02:07:33.043Z,95.17
2017-11-15T02:08:33.024Z,95.08
2017-11-15T02:09:33.013Z,95.27
2017-11-15T02:10:33.014Z,94.98
2017-11-15T02:11:32.996Z,95.08
2017-11-15T02:12:32.985Z,95.36
2017-11-15T02:13:32.985Z,95.56
2017-11-15T02:14:32.974Z,95.36
2017-11-15T02:15:32.951Z,94.98
2017-11-15T02:16:32.954Z,95.27
2017-11-15T02:17:32.937Z,95.17
2017-11-15T02:18:32.667Z,95.17
2017-11-15T02:19:32.913Z,95.17
2017-11-15T02:20:32.903Z,94.98
2017-11-15T02:21:32.637Z,95.27
2017-11-15T02:22:32.883Z,95.08
2017-11-15T02:23:32.878Z,94.98
2017-11-15T02:24:32.860Z,95.27
2017-11-15T02:25:32.855Z,95.08
2017-11-15T02:26:32.841Z,95.36
2017-11-15T02:27:32.833Z,95.08
2017-11-15T02:28:32.566Z,95.17
2017-11-15T02:29:32.812Z,95.08
2017-11-15T02:30:32.822Z,95.08
2017-11-15T02:31:32.796Z,95.27
2017-11-15T02:32:32.784Z,95.27
2017-11-15T02:33:32.775Z,95.27
2017-11-15T02:34:32.766Z,94.89
2017-11-15T02:35:32.755Z,95.08
2017-11-15T02:36:32.760Z,94.89
2017-11-15T02:37:32.734Z,95.27
2017-11-15T02:38:32.722Z,95.08
2017-11-15T02:39:32.714Z,95.08
2017-11-15T02:40:32.706Z,95.17
2017-11-15T02:41:32.691Z,94.98
2017-11-15T02:42:32.685Z,95.27
2017-11-15T02:43:32.672Z,95.27
2017-11-15T02:44:32.664Z,94.98
2017-11-15T02:45:32.651Z,95.27
2017-11-15T02:46:32.646Z,95.08
2017-11-15T02:47:32.373Z,95.17
2017-11-15T02:48:32.641Z,94.98
2017-11-15T02:49:32.614Z,95.36
2017-11-15T02:50:32.609Z,95.17
2017-11-15T02:51:32.604Z,95.17
2017-11-15T02:52:32.587Z,95.46
2017-11-15T02:53:32.585Z,95.46
2017-11-15T02:54:32.571Z,95.27
2017-11-15T02:55:32.561Z,95.17
2017-11-15T02:56:32.568Z,95.17
2017-11-15T02:57:32.538Z,94.98
2017-11-15T02:58:32.539Z,95.08
2017-11-15T02:59:32.537Z,95.08
2017-11-15T03:00:32.500Z,95.17
2017-11-15T03:01:32.498Z,95.56
2017-11-15T03:02:32.493Z,95.17
2017-11-15T03:03:32.474Z,95.27
2017-11-15T03:04:32.471Z,95.75
2017-11-15T03:05:32.451Z,95.79
2017-11-15T03:06:32.442Z,95.84
2017-11-15T03:07:32.433Z,95.65
2017-11-15T03:08:32.441Z,96.22
2017-11-15T03:09:32.411Z,96.03
2017-11-15T03:10:32.411Z,95.75
2017-11-15T03:11:32.396Z,95.84
2017-11-15T03:12:32.385Z,95.75
2017-11-15T03:13:32.381Z,95.94
2017-11-15T03:14:32.372Z,95.94
2017-11-15T03:15:32.097Z,95.6
2017-11-15T03:16:32.343Z,96.08
2017-11-15T03:17:32.349Z,96.03
2017-11-15T03:18:32.330Z,95.89
2017-11-15T03:19:32.317Z,96.03
2017-11-15T03:20:32.300Z,96.36
2017-11-15T03:21:32.291Z,96.17
2017-11-15T03:22:32.287Z,96.41
2017-11-15T03:23:32.269Z,96.51
2017-11-15T03:24:32.262Z,96.46
2017-11-15T03:25:32.252Z,96.46
2017-11-15T03:26:32.242Z,96.89
2017-11-15T03:27:32.246Z,97.31
2017-11-15T03:28:32.219Z,97.79
2017-11-15T03:29:32.225Z,97.69
2017-11-15T03:30:32.208Z,97.5
2017-11-15T03:31:32.193Z,98.08
2017-11-15T03:32:32.181Z,97.6
2017-11-15T03:33:32.169Z,97.6
2017-11-15T03:34:32.165Z,97.79
2017-11-15T03:35:32.148Z,97.5
2017-11-15T03:36:32.141Z,97.79
2017-11-15T03:37:32.133Z,97.41
2017-11-15T03:38:32.117Z,97.88
2017-11-15T03:39:31.854Z,97.41
2017-11-15T03:40:32.100Z,97.31
2017-11-15T03:41:32.088Z,97.41
2017-11-15T03:42:32.076Z,97.5
2017-11-15T03:43:32.476Z,96.84
2017-11-15T03:44:32.062Z,96.94
2017-11-15T03:45:32.050Z,97.03
2017-11-15T03:46:31.780Z,97.03
2017-11-15T03:47:32.026Z,97.13
2017-11-15T03:48:32.019Z,97.22
2017-11-15T03:49:32.005Z,97.03
2017-11-15T03:50:31.997Z,97.13
2017-11-15T03:51:31.991Z,97.13
2017-11-15T03:52:31.976Z,96.65
2017-11-15T03:53:31.970Z,96.84
2017-11-15T03:54:31.958Z,95.89
2017-11-15T03:55:31.946Z,96.46
2017-11-15T03:56:31.936Z,96.55
2017-11-15T03:57:31.925Z,96.17
2017-11-15T03:58:31.915Z,96.84
2017-11-15T03:59:31.902Z,96.84
2017-11-15T04:00:31.897Z,96.84
2017-11-15T04:01:31.883Z,96.26
2017-11-15T04:02:31.883Z,96.36
2017-11-15T04:03:31.866Z,96.08
2017-11-15T04:04:31.859Z,96.17
2017-11-15T04:05:31.845Z,95.98
2017-11-15T04:06:31.844Z,96.46
2017-11-15T04:07:31.821Z,96.26
2017-11-15T04:08:31.825Z,96.22
2017-11-15T04:09:31.823Z,96.22
2017-11-15T04:10:31.532Z,96.41
2017-11-15T04:11:31.785Z,96.55
2017-11-15T04:12:31.776Z,96.03
2017-11-15T04:13:31.765Z,96.03
2017-11-15T04:14:31.748Z,96.08
2017-11-15T04:15:31.748Z,96.08
2017-11-15T04:16:31.729Z,95.89
2017-11-15T04:17:31.721Z,95.98
2017-11-15T04:18:31.712Z,96.17
2017-11-15T04:19:31.697Z,95.89
2017-11-15T04:20:31.707Z,95.79
2017-11-15T04:21:31.681Z,95.89
2017-11-15T04:22:31.670Z,95.89
2017-11-15T04:23:31.665Z,95.7
2017-11-15T04:24:31.659Z,95.89
2017-11-15T04:25:31.637Z,95.89
2017-11-15T04:26:31.627Z,95.89
2017-11-15T04:27:31.620Z,95.89
2017-11-15T04:28:31.608Z,96.03
2017-11-15T04:29:31.599Z,96.12
2017-11-15T04:30:31.595Z,95.51
2017-11-15T04:31:31.579Z,95.6
2017-11-15T04:32:31.308Z,95.7
2017-11-15T04:33:31.563Z,95.56
2017-11-15T04:34:31.288Z,95.94
2017-11-15T04:35:31.551Z,95.75
2017-11-15T04:36:31.527Z,95.79
2017-11-15T04:37:31.523Z,96.03
2017-11-15T04:38:31.505Z,95.98
2017-11-15T04:39:31.498Z,95.98
2017-11-15T04:40:31.488Z,95.27
2017-11-15T04:41:31.471Z,95.22
2017-11-15T04:42:31.461Z,95.17
2017-11-15T04:43:31.453Z,96.03
2017-11-15T04:44:31.446Z,95.94
2017-11-15T04:45:31.439Z,95.75
2017-11-15T04:46:31.427Z,95.84
2017-11-15T04:47:31.430Z,95.98
2017-11-15T04:48:31.402Z,95.94
2017-11-15T04:49:31.394Z,95.27
2017-11-15T04:50:31.383Z,95.08
2017-11-15T04:51:31.376Z,95.41
2017-11-15T04:52:31.105Z,95.27
2017-11-15T04:53:31.361Z,95.27
2017-11-15T04:54:31.342Z,95.84
2017-11-15T04:55:31.072Z,96.03
2017-11-15T04:56:31.318Z,95.36
2017-11-15T04:57:31.312Z,95.12
2017-11-15T04:58:31.042Z,95.03
2017-11-15T04:59:31.293Z,95.98
2017-11-15T05:00:31.022Z,95.84
2017-11-15T05:01:31.016Z,95.75
2017-11-15T05:02:31.263Z,96.08
2017-11-15T05:03:31.249Z,95.75
2017-11-15T05:04:31.244Z,95.65
2017-11-15T05:05:31.231Z,95.75
2017-11-15T05:06:31.230Z,95.75
2017-11-15T05:07:31.209Z,95.94
2017-11-15T05:08:31.203Z,95.94
2017-11-15T05:09:31.190Z,95.75
2017-11-15T05:10:31.177Z,95.75
2017-11-15T05:11:31.181Z,95.65
2017-11-15T05:12:31.166Z,95.65
2017-11-15T05:13:31.150Z,95.75
2017-11-15T05:14:31.141Z,95.84
2017-11-15T05:15:31.130Z,95.84
2017-11-15T05:16:31.120Z,95.75
2017-11-15T05:17:31.110Z,96.12
2017-11-15T05:18:31.103Z,95.27
2017-11-15T05:19:31.088Z,95.08
2017-11-15T05:20:31.079Z,94.98
2017-11-15T05:21:31.069Z,94.89
2017-11-15T05:22:31.057Z,95.17
2017-11-15T05:23:31.046Z,95.27
2017-11-15T05:24:31.041Z,95.08
2017-11-15T05:25:31.032Z,95.17
2017-11-15T05:26:31.022Z,95.08
2017-11-15T05:27:31.012Z,94.98
2017-11-15T05:28:30.999Z,94.89
2017-11-15T05:29:30.995Z,95.17
2017-11-15T05:30:30.980Z,95.27
2017-11-15T05:31:30.969Z,95.17
2017-11-15T05:32:30.958Z,95.17
2017-11-15T05:33:30.688Z,95.17
2017-11-15T05:34:30.961Z,94.89
2017-11-15T05:35:30.932Z,94.89
2017-11-15T05:36:30.919Z,95.17
2017-11-15T05:37:30.921Z,94.98
2017-11-15T05:38:30.641Z,95.17
2017-11-15T05:39:30.887Z,95.17
2017-11-15T05:40:30.880Z,94.89
2017-11-15T05:41:30.871Z,95.08
2017-11-15T05:42:30.857Z,95.08
2017-11-15T05:43:30.845Z,95.27
2017-11-15T05:44:30.839Z,94.98
2017-11-15T05:45:30.826Z,94.98
2017-11-15T05:46:30.824Z,95.27
2017-11-15T05:47:30.808Z,94.6
2017-11-15T05:48:30.807Z,94.98
2017-11-15T05:49:30.790Z,95.17
2017-11-15T05:50:30.780Z,95.27
2017-11-15T05:51:30.777Z,95.17
2017-11-15T05:52:30.755Z,95.27
2017-11-15T05:53:30.751Z,94.51
2017-11-15T05:54:30.737Z,94.89
2017-11-15T05:55:30.469Z,94.79
2017-11-15T05:56:30.719Z,94.6
2017-11-15T05:57:30.711Z,94.51
2017-11-15T05:58:30.699Z,94.89
2017-11-15T05:59:30.689Z,94.6
2017-11-15T06:00:30.679Z,94.7
2017-11-15T06:01:30.669Z,94.79
2017-11-15T06:02:30.668Z,94.7
2017-11-15T06:03:30.658Z,94.6
2017-11-15T06:04:30.639Z,94.89
2017-11-15T06:05:30.628Z,94.79
2017-11-15T06:06:30.621Z,94.22
2017-11-15T06:07:30.607Z,94.51
2017-11-15T06:08:30.602Z,95.17
2017-11-15T06:09:30.694Z,94.89
2017-11-15T06:10:30.798Z,94.6
2017-11-15T06:11:30.729Z,94.89
2017-11-15T06:12:30.700Z,94.79
2017-11-15T06:13:30.591Z,94.79
2017-11-15T06:14:30.683Z,94.89
2017-11-15T06:15:30.691Z,94.89
2017-11-15T06:16:30.619Z,94.98
2017-11-15T06:17:30.726Z,94.7
2017-11-15T06:18:30.669Z,94.79
2017-11-15T06:19:30.555Z,94.7
2017-11-15T06:20:30.479Z,94.6
2017-11-15T06:21:30.556Z,94.98
2017-11-15T06:22:30.724Z,94.6
2017-11-15T06:23:30.473Z,94.89
2017-11-15T06:24:30.564Z,94.89
2017-11-15T06:25:30.530Z,94.6
2017-11-15T06:26:30.599Z,94.79
2017-11-15T06:27:30.626Z,94.7
2017-11-15T06:28:30.442Z,94.51
2017-11-15T06:29:30.145Z,94.51
2017-11-15T06:30:30.562Z,94.7
2017-11-15T06:31:30.232Z,94.7
2017-11-15T06:32:30.533Z,94.79
2017-11-15T06:33:30.442Z,94.6
2017-11-15T06:34:30.459Z,94.6
2017-11-15T06:35:30.465Z,94.79
2017-11-15T06:36:30.574Z,94.6
2017-11-15T06:37:30.483Z,94.51
2017-11-15T06:38:30.305Z,94.98
2017-11-15T06:39:30.292Z,95.27
2017-11-15T06:40:30.281Z,95.27
2017-11-15T06:41:30.275Z,95.27
2017-11-15T06:42:30.271Z,95.17
2017-11-15T06:43:30.253Z,94.98
2017-11-15T06:44:30.247Z,95.17
2017-11-15T06:45:30.252Z,94.89
2017-11-15T06:46:30.227Z,94.74
2017-11-15T06:47:30.215Z,94.51
2017-11-15T06:48:30.207Z,95.17
2017-11-15T06:49:30.203Z,95.27
2017-11-15T06:50:30.183Z,95.17
2017-11-15T06:51:30.188Z,95.36
2017-11-15T06:52:30.172Z,95.08
2017-11-15T06:53:30.179Z,94.93
2017-11-15T06:54:30.153Z,94.65
2017-11-15T06:55:30.138Z,94.93
2017-11-15T06:56:30.135Z,94.84
2017-11-15T06:57:29.858Z,94.56
2017-11-15T06:58:30.113Z,94.56
2017-11-15T06:59:30.098Z,95.03
2017-11-15T07:00:29.828Z,94.6
2017-11-15T07:01:29.824Z,94.93
2017-11-15T07:02:30.070Z,94.93
2017-11-15T07:03:30.065Z,94.93
2017-11-15T07:04:30.054Z,94.6
2017-11-15T07:05:30.056Z,94.46
2017-11-15T07:06:30.028Z,94.93
2017-11-15T07:07:30.020Z,94.6
2017-11-15T07:08:30.009Z,94.74
2017-11-15T07:09:30.007Z,94.93
2017-11-15T07:10:29.988Z,94.84
2017-11-15T07:11:29.980Z,94.93
2017-11-15T07:12:29.967Z,94.65
2017-11-15T07:13:29.961Z,94.46
2017-11-15T07:14:29.947Z,94.46
2017-11-15T07:15:29.947Z,94.84
2017-11-15T07:16:29.938Z,94.65
2017-11-15T07:17:29.919Z,94.84
2017-11-15T07:18:29.921Z,94.74
2017-11-15T07:19:29.898Z,94.74
2017-11-15T07:20:29.891Z,94.56
2017-11-15T07:21:29.880Z,94.84
2017-11-15T07:22:29.873Z,93.89
2017-11-15T07:23:29.878Z,94.17
2017-11-15T07:24:29.857Z,94.27
2017-11-15T07:25:30.267Z,93.98
2017-11-15T07:26:29.832Z,93.89
2017-11-15T07:27:29.824Z,93.89
2017-11-15T07:28:29.818Z,94.08
2017-11-15T07:29:29.803Z,93.98
2017-11-15T07:30:29.796Z,93.79
2017-11-15T07:31:29.785Z,93.98
2017-11-15T07:32:29.793Z,93.98
2017-11-15T07:33:29.763Z,93.89
2017-11-15T07:34:29.781Z,93.98
2017-11-15T07:35:29.490Z,93.79
2017-11-15T07:36:29.748Z,93.79
2017-11-15T07:37:29.740Z,93.7
2017-11-15T07:38:29.734Z,93.89
2017-11-15T07:39:29.711Z,93.89
2017-11-15T07:40:29.700Z,93.98
2017-11-15T07:41:29.693Z,93.79
2017-11-15T07:42:29.683Z,93.79
2017-11-15T07:43:29.671Z,93.6
2017-11-15T07:44:29.676Z,93.93
2017-11-15T07:45:29.655Z,94.13
2017-11-15T07:46:29.642Z,93.74
2017-11-15T07:47:29.661Z,93.93
2017-11-15T07:48:29.621Z,93.46
2017-11-15T07:49:29.618Z,93.37
2017-11-15T07:50:29.604Z,92.89
2017-11-15T07:51:29.595Z,92.98
2017-11-15T07:52:29.586Z,92.6
2017-11-15T07:53:29.597Z,92.84
2017-11-15T07:54:29.308Z,93.55
2017-11-15T07:55:29.565Z,93.32
2017-11-15T07:56:29.548Z,92.93
2017-11-15T07:57:29.573Z,93.03
2017-11-15T07:58:29.543Z,93.03
2017-11-15T07:59:29.520Z,92.93
2017-11-15T08:00:29.515Z,92.84
2017-11-15T08:01:29.507Z,92.84
2017-11-15T08:02:29.503Z,92.84
2017-11-15T08:03:29.491Z,92.27
2017-11-15T08:04:29.479Z,92.46
2017-11-15T08:05:29.466Z,92.36
2017-11-15T08:06:29.465Z,92.65
2017-11-15T08:07:29.456Z,92.65
2017-11-15T08:08:29.439Z,92.65
2017-11-15T08:09:29.438Z,92.17
2017-11-15T08:10:29.421Z,92.46
2017-11-15T08:11:29.432Z,92.17
2017-11-15T08:12:29.408Z,92.36
2017-11-15T08:13:29.399Z,91.98
2017-11-15T08:14:29.419Z,92.08
2017-11-15T08:15:29.400Z,92.08
2017-11-15T08:16:29.371Z,91.98
2017-11-15T08:17:29.374Z,91.79
2017-11-15T08:18:29.359Z,92.36
2017-11-15T08:19:29.357Z,92.17
2017-11-15T08:20:29.341Z,92.08
2017-11-15T08:21:29.342Z,92.32
2017-11-15T08:22:29.326Z,92.03
2017-11-15T08:23:29.317Z,91.93
2017-11-15T08:24:29.301Z,91.93
2017-11-15T08:25:29.312Z,92.41
2017-11-15T08:26:29.284Z,91.74
2017-11-15T08:27:29.278Z,91.74
2017-11-15T08:28:29.280Z,91.74
2017-11-15T08:29:29.258Z,91.93
2017-11-15T08:30:29.271Z,91.55
2017-11-15T08:31:29.248Z,91.46
2017-11-15T08:32:29.252Z,91.36
2017-11-15T08:33:29.238Z,91.27
2017-11-15T08:34:29.229Z,90.88
2017-11-15T08:35:29.209Z,91.64
2017-11-15T08:36:29.204Z,90.98
2017-11-15T08:37:29.200Z,91.64
2017-11-15T08:38:29.190Z,91.17
2017-11-15T08:39:29.191Z,91.27
2017-11-15T08:40:29.172Z,90.88
2017-11-15T08:41:29.166Z,91.64
2017-11-15T08:42:29.200Z,91.74
2017-11-15T08:43:28.896Z,91.07
2017-11-15T08:44:29.185Z,91.17
2017-11-15T08:45:29.189Z,91.07
2017-11-15T08:46:29.179Z,91.17
2017-11-15T08:47:29.168Z,91.07
2017-11-15T08:48:29.359Z,90.88
2017-11-15T08:49:29.167Z,90.59
2017-11-15T08:50:29.116Z,90.98
2017-11-15T08:51:29.125Z,91.64
2017-11-15T08:52:29.105Z,91.46
2017-11-15T08:53:29.063Z,91.64
2017-11-15T08:54:28.813Z,91.64
2017-11-15T08:55:29.081Z,90.88
2017-11-15T08:56:29.042Z,91.64
2017-11-15T08:57:29.067Z,91.17
2017-11-15T08:58:29.298Z,91.17
2017-11-15T08:59:28.811Z,91.93
2017-11-15T09:00:29.057Z,92.03
2017-11-15T09:01:29.114Z,91.83
2017-11-15T09:02:28.741Z,91.74
2017-11-15T09:03:29.003Z,91.46
2017-11-15T09:04:28.971Z,91.64
2017-11-15T09:05:28.992Z,90.79
2017-11-15T09:06:28.968Z,91.07
2017-11-15T09:07:28.982Z,91.46
2017-11-15T09:08:28.958Z,91.36
2017-11-15T09:09:28.958Z,91.36
2017-11-15T09:10:28.740Z,91.36
2017-11-15T09:11:28.745Z,91.64
2017-11-15T09:12:29.013Z,90.98
2017-11-15T09:13:28.928Z,91.17
2017-11-15T09:14:28.925Z,91.07
2017-11-15T09:15:28.938Z,90.83
2017-11-15T09:16:28.893Z,91.17
2017-11-15T09:17:28.944Z,90.93
2017-11-15T09:18:28.668Z,91.21
2017-11-15T09:19:28.884Z,91.12
2017-11-15T09:20:28.900Z,91.12
2017-11-15T09:21:28.847Z,91.31
2017-11-15T09:22:28.884Z,91.21
2017-11-15T09:23:28.569Z,91.21
2017-11-15T09:24:28.901Z,90.55
2017-11-15T09:25:28.806Z,90.55
2017-11-15T09:26:28.537Z,91.31
2017-11-15T09:27:28.528Z,91.21
2017-11-15T09:28:28.782Z,90.73
2017-11-15T09:29:28.779Z,90.64
2017-11-15T09:30:28.812Z,91.21
2017-11-15T09:31:28.817Z,90.93
2017-11-15T09:32:28.817Z,90.83
2017-11-15T09:33:28.782Z,90.55
2017-11-15T09:34:28.536Z,90.73
2017-11-15T09:35:28.795Z,90.73
2017-11-15T09:36:28.776Z,90.26
2017-11-15T09:37:28.740Z,90.26
2017-11-15T09:38:28.759Z,90.55
2017-11-15T09:39:28.801Z,90.55
2017-11-15T09:40:28.792Z,90.55
2017-11-15T09:41:29.038Z,90.98
2017-11-15T09:42:28.719Z,91.21
2017-11-15T09:43:28.723Z,90.64
2017-11-15T09:44:28.689Z,90.36
2017-11-15T09:45:29.259Z,90.55
2017-11-15T09:46:29.226Z,91.07
2017-11-15T09:47:28.658Z,91.07
2017-11-15T09:48:28.654Z,90.98
2017-11-15T09:49:28.629Z,90.79
2017-11-15T09:50:28.625Z,91.55
2017-11-15T09:51:28.599Z,91.46
2017-11-15T09:52:28.590Z,91.64
2017-11-15T09:53:28.603Z,91.46
2017-11-15T09:54:28.577Z,91.21
2017-11-15T09:55:28.598Z,90.93
2017-11-15T09:56:28.585Z,91.12
2017-11-15T09:57:28.551Z,90.93
2017-11-15T09:58:28.551Z,90.83
2017-11-15T09:59:28.543Z,90.93
2017-11-15T10:00:28.534Z,91.12
2017-11-15T10:01:28.530Z,90.93
2017-11-15T10:02:28.513Z,90.45
2017-11-15T10:03:28.503Z,90.55
2017-11-15T10:04:28.511Z,90.45
2017-11-15T10:05:28.500Z,90.26
2017-11-15T10:06:28.499Z,90.64
2017-11-15T10:07:28.478Z,90.26
2017-11-15T10:08:28.463Z,89.88
2017-11-15T10:09:28.204Z,90.17
2017-11-15T10:10:28.468Z,90.64
2017-11-15T10:11:28.447Z,90.55
2017-11-15T10:12:28.209Z,90.73
2017-11-15T10:13:28.459Z,90.36
2017-11-15T10:14:28.455Z,90.73
2017-11-15T10:15:28.452Z,90.55
2017-11-15T10:16:28.405Z,90.07
2017-11-15T10:17:28.400Z,90.26
2017-11-15T10:18:28.406Z,90.93
2017-11-15T10:19:28.396Z,90.55
2017-11-15T10:20:28.382Z,90.26
2017-11-15T10:21:28.370Z,90.36
2017-11-15T10:22:28.380Z,90.36
2017-11-15T10:23:28.353Z,90.55
2017-11-15T10:24:28.356Z,89.88
2017-11-15T10:25:28.354Z,90.45
2017-11-15T10:26:28.339Z,90.36
2017-11-15T10:27:28.322Z,90.45
2017-11-15T10:28:28.390Z,90.55
2017-11-15T10:29:28.349Z,90.45
2017-11-15T10:30:28.358Z,90.4
2017-11-15T10:31:28.349Z,90.4
2017-11-15T10:32:28.361Z,90.31
2017-11-15T10:33:28.523Z,90.55
2017-11-15T10:34:28.290Z,90.78
2017-11-15T10:35:28.364Z,90.26
2017-11-15T10:36:28.388Z,91.21
2017-11-15T10:37:28.370Z,90.69
2017-11-15T10:38:28.496Z,90.88
2017-11-15T10:39:28.239Z,90.21
2017-11-15T10:40:28.257Z,90.45
2017-11-15T10:41:28.234Z,91.45
2017-11-15T10:42:28.270Z,91.45
2017-11-15T10:43:28.236Z,90.78
2017-11-15T10:44:27.939Z,90.5
2017-11-15T10:45:28.209Z,90.5
2017-11-15T10:46:28.195Z,90.5
2017-11-15T10:47:28.188Z,90.4
2017-11-15T10:48:28.191Z,90.31
2017-11-15T10:49:28.176Z,90.21
2017-11-15T10:50:28.171Z,90.31
2017-11-15T10:51:27.944Z,90.11
2017-11-15T10:52:28.151Z,89.92
2017-11-15T10:53:28.156Z,89.39
2017-11-15T10:54:28.139Z,89.68
2017-11-15T10:55:28.177Z,89.59
2017-11-15T10:56:28.150Z,89.49
2017-11-15T10:57:28.131Z,89.11
2017-11-15T10:58:28.107Z,88.92
2017-11-15T10:59:28.102Z,88.73
2017-11-15T11:00:28.341Z,88.73
2017-11-15T11:01:28.575Z,89.3
2017-11-15T11:02:28.069Z,89.2
2017-11-15T11:03:28.150Z,89.2
2017-11-15T11:04:28.071Z,88.92
2017-11-15T11:05:28.058Z,89.01
2017-11-15T11:06:28.062Z,88.73
2017-11-15T11:07:28.044Z,89.97
2017-11-15T11:08:28.051Z,89.87
2017-11-15T11:09:28.050Z,89.68
2017-11-15T11:10:28.026Z,89.68
2017-11-15T11:11:28.027Z,89.59
2017-11-15T11:12:28.003Z,89.64
2017-11-15T11:13:27.993Z,89.92
2017-11-15T11:14:27.985Z,89.45
2017-11-15T11:15:27.994Z,89.73
2017-11-15T11:16:27.976Z,89.45
2017-11-15T11:17:28.000Z,90.11
2017-11-15T11:18:27.960Z,90.59
2017-11-15T11:19:27.996Z,90.4
2017-11-15T11:20:27.732Z,90.78
2017-11-15T11:21:27.951Z,90.31
2017-11-15T11:22:27.965Z,91.07
2017-11-15T11:23:27.944Z,91.36
2017-11-15T11:24:27.921Z,90.78
2017-11-15T11:25:27.917Z,90.97
2017-11-15T11:26:27.903Z,91.16
2017-11-15T11:27:27.901Z,91.26
2017-11-15T11:28:27.887Z,90.97
2017-11-15T11:29:27.927Z,91.07
2017-11-15T11:30:27.874Z,90.78
2017-11-15T11:31:27.865Z,91.07
2017-11-15T11:32:27.888Z,91.36
2017-11-15T11:33:27.860Z,91.55
2017-11-15T11:34:27.863Z,91.07
2017-11-15T11:35:27.867Z,91.45
2017-11-15T11:36:27.843Z,91.64
2017-11-15T11:37:27.836Z,91.83
2017-11-15T11:38:27.839Z,91.45
2017-11-15T11:39:27.817Z,91.11
2017-11-15T11:40:27.810Z,90.97
2017-11-15T11:41:27.818Z,91.21
2017-11-15T11:42:27.826Z,90.97
2017-11-15T11:43:27.783Z,91.16
2017-11-15T11:44:27.805Z,90.5
2017-11-15T11:45:27.774Z,90.83
2017-11-15T11:46:27.506Z,90.35
2017-11-15T11:47:27.503Z,90.64
2017-11-15T11:48:27.753Z,90.64
2017-11-15T11:49:27.744Z,90.16
2017-11-15T11:50:27.762Z,89.87
2017-11-15T11:51:27.733Z,89.68
2017-11-15T11:52:27.756Z,89.78
2017-11-15T11:53:27.729Z,89.78
2017-11-15T11:54:27.726Z,89.59
2017-11-15T11:55:27.727Z,89.78
2017-11-15T11:56:27.490Z,89.73
2017-11-15T11:57:27.688Z,89.73
2017-11-15T11:58:27.698Z,89.25
2017-11-15T11:59:27.685Z,89.01
2017-11-15T12:00:27.684Z,88.92
2017-11-15T12:01:27.696Z,89.01
2017-11-15T12:02:27.657Z,89.39
2017-11-15T12:03:27.647Z,89.59
2017-11-15T12:04:27.656Z,89.68
2017-11-15T12:05:27.636Z,89.39
2017-11-15T12:06:27.369Z,89.78
2017-11-15T12:07:27.628Z,89.78
2017-11-15T12:08:27.617Z,89.39
2017-11-15T12:09:27.609Z,88.82
2017-11-15T12:10:27.433Z,89.39
2017-11-15T12:11:27.347Z,89.68
2017-11-15T12:12:27.610Z,89.59
2017-11-15T12:13:27.668Z,89.39
2017-11-15T12:14:27.320Z,89.3
2017-11-15T12:15:27.579Z,89.39
2017-11-15T12:16:27.629Z,89.68
2017-11-15T12:17:27.552Z,89.39
2017-11-15T12:18:27.596Z,89.49
2017-11-15T12:19:27.557Z,89.49
2017-11-15T12:20:27.558Z,89.3
2017-11-15T12:21:27.534Z,89.39
2017-11-15T12:22:27.567Z,89.78
2017-11-15T12:23:27.533Z,89.3
2017-11-15T12:24:27.773Z,89.68
2017-11-15T12:25:27.244Z,90.16
2017-11-15T12:26:27.514Z,89.97
2017-11-15T12:27:27.511Z,90.54
2017-11-15T12:28:28.771Z,90.25
2017-11-15T12:29:27.509Z,90.35
2017-11-15T12:30:27.516Z,90.06
2017-11-15T12:31:27.221Z,90.06
2017-11-15T12:32:27.486Z,90.54
2017-11-15T12:33:27.451Z,90.45
2017-11-15T12:34:27.521Z,90.64
2017-11-15T12:35:27.456Z,90.64
2017-11-15T12:36:27.454Z,90.73
2017-11-15T12:37:27.442Z,90.73
2017-11-15T12:38:27.413Z,90.25
2017-11-15T12:39:27.500Z,89.87
2017-11-15T12:40:27.434Z,90.06
2017-11-15T12:41:27.426Z,89.49
2017-11-15T12:42:27.440Z,89.49
2017-11-15T12:43:27.400Z,89.34
2017-11-15T12:44:27.393Z,89.68
2017-11-15T12:45:27.407Z,89.44
2017-11-15T12:46:27.372Z,89.73
2017-11-15T12:47:27.378Z,89.63
2017-11-15T12:48:27.413Z,89.73
2017-11-15T12:49:27.358Z,89.15
2017-11-15T12:50:27.352Z,89.15
2017-11-15T12:51:27.323Z,88.96
2017-11-15T12:52:27.322Z,89.25
2017-11-15T12:53:27.320Z,89.06
2017-11-15T12:54:27.335Z,89.15